METAR Data
IDs: Format: Raw Decoded Include TAF

Data at: 1731 UTC 24 Aug 2019

PAMB 241656Z AUTO 05012G17KT 10SM CLR 10/08 A2978 RMK AO2 SLP091 T01000083 $
PAMB 241556Z AUTO 03006KT 10SM CLR 08/07 A2977 RMK AO2 SLP088 T00830067 $
PAMB 241456Z AUTO 04006KT 10SM CLR 08/07 A2976 RMK AO2 SLP084 T00780067 53008 $
PAMB 241356Z AUTO 02006KT 10SM CLR 08/07 A2975 RMK AO2 SLP080 T00830072 $
PAMB 241256Z AUTO 03006KT 10SM CLR 09/08 A2974 RMK AO2 SLP077 T00940083 $
PAMB 241156Z AUTO 04006KT 10SM CLR 09/08 A2973 RMK AO2 SLP075 T00940083 10144 20089 53007 $
PAMB 241056Z AUTO 04008KT 10SM CLR 09/08 A2973 RMK AO2 SLP073 T00940078 $
PAMB 240956Z AUTO 04009KT 10SM CLR 10/08 A2972 RMK AO2 SLP069 T01000083 $
PAMB 240856Z AUTO 00000KT 8SM FEW080 11/11 A2971 RMK AO2 SLP068 T01110111 401940050 51013 $
PAMB 240756Z AUTO 00000KT 10SM CLR 11/10 A2970 RMK AO2 SLP064 T01110100 $
PAMB 240656Z AUTO 23003KT 10SM CLR 13/11 A2969 RMK AO2 SLP060 T01280111 $
PAMB 240556Z AUTO 28004KT 10SM CLR 14/11 A2968 RMK AO2 SLP056 T01440111 10194 20144 53006 $
PAMB 240456Z AUTO 23005KT 10SM CLR 16/11 A2967 RMK AO2 SLP052 T01610106 $
PAMB 240356Z AUTO 23007KT 10SM CLR 17/11 A2966 RMK AO2 SLP051 T01720106 $
PAMB 240256Z AUTO 24007KT 10SM CLR 18/09 A2966 RMK AO2 SLP050 T01830094 55002 $
PAMB 240156Z AUTO 22008KT 200V270 10SM CLR 18/09 A2966 RMK AO2 SLP049 T01830094 $
PAMB 240056Z AUTO 24010G17KT 10SM FEW050 19/10 A2966 RMK AO2 SLP051 T01890100 $
PAMB 232356Z AUTO VRB03KT 10SM SCT048 19/07 A2967 RMK AO2 SLP052 T01890072 10194 20111 58004 $
PAMB 232256Z AUTO 00000KT 10SM CLR 18/07 A2967 RMK AO2 SLP053 T01830067 $
PAMB 232156Z AUTO 16005KT 10SM FEW036 18/09 A2968 RMK AO2 SLP055 T01830089 $
PAMB 232056Z AUTO 00000KT 10SM CLR 17/09 A2968 RMK AO2 SLP056 T01720089 51001 $
PAMB 231956Z AUTO 00000KT 10SM CLR 16/10 A2968 RMK AO2 SLP056 T01610100 $
PAMB 231856Z AUTO 00000KT 10SM CLR 14/09 A2968 RMK AO2 SLP056 T01390094 $
PAMB 231756Z AUTO 00000KT 10SM CLR 11/09 A2967 RMK AO2 SLP055 T01110094 10111 20050 50001 $
PAMB 231656Z AUTO 00000KT 6SM BR CLR 08/08 A2968 RMK AO2 SLP055 T00780078 $
PAMB 231623Z AUTO 03003KT 3SM BR CLR 06/06 A2967 RMK AO2 $
PAMB 231611Z AUTO 00000KT 1 3/4SM BR CLR 06/06 A2967 RMK AO2 VIS 3/4V5 $
PAMB 231556Z AUTO 03003KT 8SM CLR 07/07 A2967 RMK AO2 SLP054 T00670067 $
PAMB 231552Z AUTO 03004KT 3SM BR CLR 07/07 A2967 RMK AO2 $
PAMB 231550Z AUTO 02003KT 1 1/4SM BR CLR 07/07 A2967 RMK AO2 $
PAMB 231547Z AUTO 01003KT 3/4SM BR CLR 06/06 A2967 RMK AO2 $
PAMB 231526Z AUTO 28003KT 1/4SM FG CLR 06/06 A2967 RMK AO2 $
PAMB 231517Z AUTO 27003KT 1/2SM FG CLR 06/06 A2967 RMK AO2 $
PAMB 231512Z AUTO 26004KT 1SM BR CLR 07/06 A2967 RMK AO2 $
PAMB 231508Z AUTO 26003KT 1/2SM FG CLR 06/06 A2967 RMK AO2 $
PAMB 231456Z AUTO 28003KT 3/4SM BR CLR 06/05 A2967 RMK AO2 SLP054 T00560050 53002 $
PAMB 231427Z AUTO 22003KT 3/4SM BR CLR 07/06 A2967 RMK AO2 $
PAMB 231425Z AUTO 22003KT 1 1/2SM BR CLR 07/07 A2967 RMK AO2 $
PAMB 231356Z AUTO 22003KT 8SM CLR 08/07 A2967 RMK AO2 SLP053 T00780072 $
PAMB 231310Z AUTO 20004KT 3SM BR CLR 07/07 A2967 RMK AO2 $
PAMB 231305Z AUTO 20003KT 1 3/4SM BR CLR 07/07 A2967 RMK AO2 VIS 1/2V5 $
PAMB 231256Z AUTO 19004G14KT 5SM BR CLR 08/07 A2966 RMK AO2 SLP051 T00830072 $
PAMB 231156Z AUTO 00000KT 7SM CLR 08/07 A2966 RMK AO2 SLP051 T00780072 10144 20078 58001 $
PAMB 231056Z AUTO VRB04KT 10SM SCT100 10/08 A2967 RMK AO2 SLP053 T01000083 $
PAMB 230956Z AUTO VRB04KT 10SM OVC100 11/09 A2967 RMK AO2 SLP053 T01110089 $
PAMB 230856Z AUTO 17007G14KT 10SM CLR 09/08 A2967 RMK AO2 SLP053 T00940083 402000083 53005 $
PAMB 230756Z AUTO 15008KT 10SM CLR 11/08 A2966 RMK AO2 SLP051 T01060078 $
PAMB 230656Z AUTO VRB04KT 10SM CLR 13/08 A2966 RMK AO2 SLP049 T01280083 $
PAMB 230556Z AUTO 26006KT 9SM CLR 14/08 A2966 RMK AO2 SLP048 T01440078 10200 20144 53004 $